Time;durP1;ratioP1;P1;durP2;ratioP2;P2;SDS_P1;SDS_P2;PMS_P1;PMS_P2;Temp;Humidity;BMP_temperature;BMP_pressure;BME280_temperature;BME280_humidity;BME280_pressure;Samples;Min_cycle;Max_cycle;Signal;HPM_P1;HPM_P2
2024/02/23 00:01:45;;;;;;;1999.90;999.90;;;6.40;99.90;;;;;;5077794;28;20414;-70
2024/02/23 00:04:11;;;;;;;1999.90;999.90;;;5.10;99.90;;;;;;5057855;28;20424;-70
2024/02/23 00:06:37;;;;;;;1999.90;999.90;;;5.90;99.90;;;;;;5073994;28;20198;-70
2024/02/23 00:09:03;;;;;;;1999.90;999.90;;;5.70;99.90;;;;;;5075293;28;20403;-70
2024/02/23 00:11:29;;;;;;;1999.90;999.90;;;5.60;99.90;;;;;;5075898;28;20186;-70
2024/02/23 00:13:54;;;;;;;1999.90;999.90;;;5.60;99.90;;;;;;5074958;28;20175;-70
2024/02/23 00:16:20;;;;;;;1999.90;999.90;;;5.60;99.90;;;;;;5073713;28;20753;-70
2024/02/23 00:18:45;;;;;;;1999.90;999.90;;;5.50;99.90;;;;;;5073187;28;20171;-70
2024/02/23 00:21:11;;;;;;;1999.90;999.90;;;5.50;99.90;;;;;;5073009;28;20171;-70
2024/02/23 00:23:37;;;;;;;1999.90;999.90;;;5.50;99.90;;;;;;5073098;28;20175;-70
2024/02/23 00:26:03;;;;;;;1999.90;999.90;;;5.60;99.90;;;;;;5072704;28;20205;-70
2024/02/23 00:28:28;;;;;;;1999.90;999.90;;;5.60;99.90;;;;;;5072863;28;20190;-70
2024/02/23 00:30:54;;;;;;;1999.90;999.90;;;5.60;99.90;;;;;;5072695;28;20467;-70
2024/02/23 00:33:20;;;;;;;1999.90;999.90;;;5.60;99.90;;;;;;5073209;28;20702;-70
2024/02/23 00:35:45;;;;;;;1999.90;999.90;;;5.70;99.90;;;;;;5073999;28;20195;-70
2024/02/23 00:38:11;;;;;;;1999.90;999.90;;;5.70;99.90;;;;;;5056414;28;20414;-70
2024/02/23 00:40:38;;;;;;;1999.90;999.90;;;5.80;99.90;;;;;;5072463;28;20167;-70
2024/02/23 00:43:04;;;;;;;1999.90;999.90;;;5.80;99.90;;;;;;5071401;28;20213;-70
2024/02/23 00:45:29;;;;;;;1999.90;999.90;;;5.90;99.90;;;;;;5071837;28;20495;-70
2024/02/23 00:47:56;;;;;;;1999.90;999.90;;;5.90;94.20;;;;;;5071959;28;20410;-71
2024/02/23 00:50:23;;;;;;;1999.90;999.90;;;6.20;91.80;;;;;;5072199;28;20642;-70
2024/02/23 00:52:49;;;;;;;1999.90;999.90;;;6.40;89.90;;;;;;5071371;28;20923;-70
2024/02/23 00:55:14;;;;;;;1999.90;999.90;;;6.00;78.00;;;;;;5072078;28;20471;-71
2024/02/23 00:57:40;;;;;;;1999.90;999.90;;;6.10;79.20;;;;;;5071912;28;20170;-70
2024/02/23 01:00:09;;;;;;;1999.90;999.90;;;6.10;83.40;;;;;;5072125;28;20167;-71
2024/02/23 01:02:35;;;;;;;1999.90;999.90;;;6.50;90.50;;;;;;5074253;28;20178;-70
2024/02/23 01:05:09;;;;;;;1999.90;999.90;;;6.40;99.90;;;;;;5093064;28;20389;-71
2024/02/23 01:07:36;;;;;;;1999.90;999.90;;;5.70;87.40;;;;;;5093053;28;20544;-70
2024/02/23 01:10:03;;;;;;;1999.90;999.90;;;6.10;88.20;;;;;;5081317;28;20417;-71
2024/02/23 01:12:29;;;;;;;1999.90;999.90;;;6.10;88.90;;;;;;5072045;28;20417;-71
2024/02/23 01:14:55;;;;;;;1999.90;999.90;;;;;;;;;;5093767;28;20417;-71
2024/02/23 01:17:21;;;;;;;1999.90;999.90;;;6.10;90.80;;;;;;5083401;28;20199;-70
2024/02/23 01:19:46;;;;;;;1999.90;999.90;;;6.20;92.20;;;;;;5071835;28;20401;-71
2024/02/23 01:22:12;;;;;;;1999.90;999.90;;;6.00;95.00;;;;;;5071658;28;20611;-71
2024/02/23 01:24:40;;;;;;;1999.90;999.90;;;5.90;98.40;;;;;;5078606;28;20158;-70
2024/02/23 01:27:18;;;;;;;1999.90;999.90;;;5.80;99.90;;;;;;5062468;28;20195;-70
2024/02/23 01:29:45;;;;;;;1999.90;999.90;;;5.80;99.90;;;;;;5079244;28;20428;-70
2024/02/23 01:32:11;;;;;;;1999.90;999.90;;;;;;;;;;5086145;28;20432;-70
2024/02/23 01:34:38;;;;;;;1999.90;999.90;;;5.60;99.90;;;;;;5075269;28;20461;-70
2024/02/23 01:37:04;;;;;;;1999.90;999.90;;;;;;;;;;5094671;28;20517;-68
2024/02/23 01:39:31;;;;;;;1999.90;999.90;;;5.60;99.90;;;;;;5078356;28;20401;-71
2024/02/23 01:41:57;;;;;;;1999.90;999.90;;;7.10;99.90;;;;;;5071403;28;20397;-70
2024/02/23 01:44:22;;;;;;;1999.90;999.90;;;5.60;99.90;;;;;;5071610;28;20257;-71
2024/02/23 01:46:49;;;;;;;1999.90;999.90;;;5.60;99.90;;;;;;5076469;28;20619;-70
2024/02/23 01:49:15;;;;;;;1999.90;999.90;;;5.50;99.90;;;;;;5071556;28;20178;-71
2024/02/23 01:51:40;;;;;;;1999.90;999.90;;;5.60;99.90;;;;;;5071385;28;20401;-70
2024/02/23 01:54:08;;;;;;;1999.90;999.90;;;5.60;99.90;;;;;;5071160;28;20534;-71
2024/02/23 01:56:36;;;;;;;1999.90;999.90;;;5.60;99.90;;;;;;5075382;28;20187;-71
2024/02/23 01:59:03;;;;;;;1999.90;999.90;;;5.50;97.70;;;;;;5075510;28;20407;-71
2024/02/23 02:01:32;;;;;;;1999.90;999.90;;;5.50;96.50;;;;;;5088386;28;20409;-72
2024/02/23 02:03:58;;;;;;;1999.90;999.90;;;7.70;98.00;;;;;;5068900;28;20447;-71
2024/02/23 02:06:24;;;;;;;1999.90;999.90;;;5.50;96.00;;;;;;5077472;28;20489;-71
2024/02/23 02:08:50;;;;;;;1999.90;999.90;;;5.60;96.10;;;;;;5077209;28;20403;-71
2024/02/23 02:11:16;;;;;;;1999.90;999.90;;;5.40;93.90;;;;;;5083008;28;20397;-70
2024/02/23 02:13:42;;;;;;;1999.90;999.90;;;5.60;92.40;;;;;;5075165;28;20405;-71
2024/02/23 02:16:07;;;;;;;1999.90;999.90;;;5.60;89.20;;;;;;5075153;28;20735;-71
2024/02/23 02:18:33;;;;;;;1999.90;999.90;;;5.60;89.90;;;;;;5078176;28;20183;-71
2024/02/23 02:20:59;;;;;;;1999.90;999.90;;;5.60;88.70;;;;;;5078545;28;20405;-71
2024/02/23 02:23:26;;;;;;;1999.90;999.90;;;5.70;88.90;;;;;;5078261;28;20664;-71
2024/02/23 02:25:58;;;;;;;1999.90;999.90;;;5.60;90.30;;;;;;5077983;28;20202;-71
2024/02/23 02:28:25;;;;;;;1999.90;999.90;;;5.60;88.70;;;;;;5078861;28;20401;-71
2024/02/23 02:30:52;;;;;;;1999.90;999.90;;;5.70;89.20;;;;;;5080412;28;20408;-71
2024/02/23 02:33:18;;;;;;;1999.90;999.90;;;5.70;88.20;;;;;;5094825;28;20397;-70
2024/02/23 02:35:44;;;;;;;1999.90;999.90;;;5.60;85.20;;;;;;5078184;28;20463;-69
2024/02/23 02:38:13;;;;;;;1999.90;999.90;;;5.70;86.70;;;;;;5080167;28;20409;-71
2024/02/23 02:40:39;;;;;;;1999.90;999.90;;;5.70;83.50;;;;;;5093583;28;20401;-71
2024/02/23 02:43:05;;;;;;;1999.90;999.90;;;5.70;86.00;;;;;;5081608;28;20470;-71
2024/02/23 02:45:32;;;;;;;1999.90;999.90;;;5.70;74.00;;;;;;5077886;28;20440;-71
2024/02/23 02:47:59;;;;;;;1999.90;999.90;;;5.70;75.60;;;;;;5075869;28;20513;-71
2024/02/23 02:50:25;;;;;;;1999.90;999.90;;;5.70;72.60;;;;;;5074222;28;20428;-70
2024/02/23 02:52:51;;;;;;;1999.90;999.90;;;5.70;66.90;;;;;;5073308;28;20393;-71
2024/02/23 02:55:18;;;;;;;1999.90;999.90;;;5.70;62.60;;;;;;5092458;28;20179;-70
2024/02/23 02:57:46;;;;;;;1999.90;999.90;;;5.70;63.10;;;;;;5096732;28;20163;-69
2024/02/23 03:00:12;;;;;;;1999.90;999.90;;;5.70;63.60;;;;;;5089933;28;20412;-71
2024/02/23 03:02:38;;;;;;;1999.90;999.90;;;5.70;64.30;;;;;;5074117;28;20916;-71
2024/02/23 03:05:04;;;;;;;1999.90;999.90;;;5.60;90.40;;;;;;5061108;28;20404;-71
2024/02/23 03:07:29;;;;;;;1999.90;999.90;;;5.70;64.40;;;;;;5075794;28;20465;-70
2024/02/23 03:09:55;;;;;;;1999.90;999.90;;;5.70;65.10;;;;;;5078044;28;20946;-70
2024/02/23 03:12:21;;;;;;;1999.90;999.90;;;;;;;;;;5070212;28;20174;-71
2024/02/23 03:14:47;;;;;;;1999.90;999.90;;;5.70;56.60;;;;;;5084526;28;20199;-70
2024/02/23 03:17:12;;;;;;;1999.90;999.90;;;5.70;57.60;;;;;;5074123;28;20428;-70
2024/02/23 03:19:38;;;;;;;1999.90;999.90;;;5.70;56.00;;;;;;5074321;28;20171;-70
2024/02/23 03:24:42;;;;;;;1999.90;999.90;;;5.80;56.40;;;;;;5073050;28;20830;-73
2024/02/23 03:27:07;;;;;;;1999.90;999.90;;;5.80;58.10;;;;;;5075188;28;20464;-72
2024/02/23 03:29:33;;;;;;;1999.90;999.90;;;5.80;57.70;;;;;;5074763;28;20772;-73
2024/02/23 03:31:58;;;;;;;1999.90;999.90;;;5.80;58.40;;;;;;5074410;28;20322;-73
2024/02/23 03:34:24;;;;;;;1999.90;999.90;;;5.70;59.30;;;;;;5074243;28;20226;-74
2024/02/23 03:36:50;;;;;;;1999.90;999.90;;;5.80;60.30;;;;;;5074241;28;20167;-73
2024/02/23 03:39:15;;;;;;;1999.90;999.90;;;5.90;59.70;;;;;;5075688;28;21012;-73
2024/02/23 03:41:41;;;;;;;1999.90;999.90;;;5.90;55.20;;;;;;5074361;28;20217;-71
2024/02/23 03:44:07;;;;;;;1999.90;999.90;;;5.90;53.00;;;;;;5073468;28;20201;-73
2024/02/23 03:46:34;;;;;;;1999.90;999.90;;;5.90;53.80;;;;;;5072954;28;20207;-73
2024/02/23 03:49:00;;;;;;;1999.90;999.90;;;6.00;54.30;;;;;;5073036;28;20402;-72
2024/02/23 03:51:25;;;;;;;1999.90;999.90;;;6.00;50.20;;;;;;5073086;28;20462;-71
2024/02/23 03:53:51;;;;;;;1999.90;999.90;;;6.10;48.60;;;;;;5072630;28;20252;-71
2024/02/23 03:56:16;;;;;;;1999.90;999.90;;;6.20;46.40;;;;;;5072085;28;20174;-71
2024/02/23 03:58:42;;;;;;;1999.90;999.90;;;6.10;44.30;;;;;;5072539;28;20171;-72
2024/02/23 04:01:08;;;;;;;1999.90;999.90;;;6.20;47.20;;;;;;5071999;28;20630;-71
2024/02/23 04:03:34;;;;;;;1999.90;999.90;;;5.90;47.10;;;;;;5071901;28;20186;-71
2024/02/23 04:05:59;;;;;;;1999.90;999.90;;;6.10;44.00;;;;;;5072350;28;20485;-71
2024/02/23 04:08:25;;;;;;;1999.90;999.90;;;6.20;44.60;;;;;;5072352;28;20164;-71
2024/02/23 04:10:50;;;;;;;1999.90;999.90;;;6.20;43.50;;;;;;5072354;28;20161;-71
2024/02/23 04:13:17;;;;;;;1999.90;999.90;;;6.30;43.10;;;;;;5072566;28;20237;-71
2024/02/23 04:15:43;;;;;;;1999.90;999.90;;;6.30;45.00;;;;;;5072584;28;20563;-71
2024/02/23 04:18:09;;;;;;;1999.90;999.90;;;6.20;44.70;;;;;;5072749;28;20405;-71
2024/02/23 04:20:35;;;;;;;1999.90;999.90;;;6.30;41.30;;;;;;5072490;28;20895;-71
2024/02/23 04:23:00;;;;;;;1999.90;999.90;;;6.20;41.10;;;;;;5072357;28;20777;-71
2024/02/23 04:25:26;;;;;;;1999.90;999.90;;;6.30;41.30;;;;;;5072595;28;20178;-71
2024/02/23 04:27:52;;;;;;;1999.90;999.90;;;6.40;36.70;;;;;;5072612;28;20159;-71
2024/02/23 04:30:17;;;;;;;1999.90;999.90;;;6.40;33.70;;;;;;5072622;28;20162;-71
2024/02/23 04:32:44;;;;;;;1999.90;999.90;;;6.40;34.00;;;;;;5072149;28;20533;-71
2024/02/23 04:35:09;;;;;;;1999.90;999.90;;;6.40;34.10;;;;;;5072128;28;20622;-71
2024/02/23 04:37:35;;;;;;;1999.90;999.90;;;6.40;34.50;;;;;;5072409;28;20427;-70
2024/02/23 04:40:01;;;;;;;1999.90;999.90;;;6.30;33.90;;;;;;5072646;28;20217;-71
2024/02/23 04:42:27;;;;;;;1999.90;999.90;;;6.40;36.00;;;;;;5072121;28;20568;-74
2024/02/23 04:44:54;;;;;;;1999.90;999.90;;;6.30;38.00;;;;;;5072391;28;20179;-71
2024/02/23 04:47:20;;;;;;;1999.90;999.90;;;6.40;39.10;;;;;;5072246;28;20824;-71
2024/02/23 04:49:46;;;;;;;1999.90;999.90;;;6.30;37.40;;;;;;5071959;28;20408;-70
2024/02/23 04:52:11;;;;;;;1999.90;999.90;;;6.30;55.30;;;;;;5071852;28;20213;-70
2024/02/23 04:54:37;;;;;;;1999.90;999.90;;;6.20;36.50;;;;;;5072075;28;20200;-70
2024/02/23 04:57:02;;;;;;;1999.90;999.90;;;6.30;35.80;;;;;;5072137;28;20258;-75
2024/02/23 04:59:29;;;;;;;1999.90;999.90;;;6.30;35.40;;;;;;5072142;28;20171;-70
2024/02/23 05:01:55;;;;;;;1999.90;999.90;;;6.30;35.10;;;;;;5071627;28;20167;-71
2024/02/23 05:04:21;;;;;;;1999.90;999.90;;;6.30;32.60;;;;;;5071902;28;20437;-75
2024/02/23 05:06:46;;;;;;;1999.90;999.90;;;6.10;32.50;;;;;;5071874;28;20194;-70
2024/02/23 05:09:12;;;;;;;1999.90;999.90;;;;;;;;;;5072059;28;20159;-69
2024/02/23 05:11:38;;;;;;;1999.90;999.90;;;6.20;30.20;;;;;;5071708;28;20569;-69
2024/02/23 05:14:03;;;;;;;1999.90;999.90;;;6.20;30.30;;;;;;5071811;28;20496;-71
2024/02/23 05:16:29;;;;;;;1999.90;999.90;;;6.10;31.10;;;;;;5071430;28;20781;-73
2024/02/23 05:18:54;;;;;;;1999.90;999.90;;;6.10;32.10;;;;;;5071878;28;20200;-69
2024/02/23 05:21:20;;;;;;;1999.90;999.90;;;6.10;33.30;;;;;;5071658;28;20249;-70
2024/02/23 05:23:46;;;;;;;1999.90;999.90;;;6.10;33.70;;;;;;5071611;28;20214;-70
2024/02/23 05:26:12;;;;;;;1999.90;999.90;;;6.10;35.30;;;;;;5071827;28;20657;-71
2024/02/23 05:28:38;;;;;;;1999.90;999.90;;;6.10;33.70;;;;;;5071790;28;20409;-72
2024/02/23 05:31:04;;;;;;;1999.90;999.90;;;6.20;34.30;;;;;;5071187;28;20167;-74
2024/02/23 05:33:30;;;;;;;1999.90;999.90;;;6.10;34.10;;;;;;5071611;28;20585;-70
2024/02/23 05:35:55;;;;;;;1999.90;999.90;;;6.10;33.00;;;;;;5071515;28;20440;-72
2024/02/23 05:38:21;;;;;;;1999.90;999.90;;;7.30;35.40;;;;;;5071617;28;20209;-74
2024/02/23 05:40:48;;;;;;;1999.90;999.90;;;6.30;33.20;;;;;;5071432;28;20209;-70
2024/02/23 05:43:13;;;;;;;1999.90;999.90;;;6.30;29.60;;;;;;5071589;28;20558;-73
2024/02/23 05:45:39;;;;;;;1999.90;999.90;;;6.40;28.50;;;;;;5070844;28;20445;-70
2024/02/23 05:48:06;;;;;;;1999.90;999.90;;;6.40;29.30;;;;;;5071376;28;20170;-70
2024/02/23 05:50:32;;;;;;;1999.90;999.90;;;6.30;28.80;;;;;;5071147;28;20281;-71
2024/02/23 05:52:58;;;;;;;1999.90;999.90;;;6.30;29.40;;;;;;5070892;28;20529;-73
2024/02/23 05:55:23;;;;;;;1999.90;999.90;;;6.30;29.90;;;;;;5070860;28;20171;-70
2024/02/23 05:57:50;;;;;;;1999.90;999.90;;;6.20;32.50;;;;;;5071248;28;20445;-70
2024/02/23 06:00:18;;;;;;;1999.90;999.90;;;6.30;32.10;;;;;;5071499;28;20171;-74
2024/02/23 06:02:44;;;;;;;1999.90;999.90;;;6.20;33.60;;;;;;5070753;28;20811;-71
2024/02/23 06:05:11;;;;;;;1999.90;999.90;;;6.40;35.20;;;;;;5071307;28;20405;-73
2024/02/23 06:07:37;;;;;;;1999.90;999.90;;;6.20;37.10;;;;;;5071405;28;20456;-70
2024/02/23 06:10:02;;;;;;;1999.90;999.90;;;6.10;40.30;;;;;;5071377;28;20435;-70
2024/02/23 06:12:28;;;;;;;1999.90;999.90;;;6.10;42.90;;;;;;5070870;28;20223;-72
2024/02/23 06:14:55;;;;;;;1999.90;999.90;;;6.20;43.80;;;;;;5070959;28;20167;-71
2024/02/23 06:17:20;;;;;;;1999.90;999.90;;;6.10;40.40;;;;;;5071230;28;20178;-70
2024/02/23 06:19:46;;;;;;;1999.90;999.90;;;6.10;40.20;;;;;;5071265;28;20488;-72
2024/02/23 06:22:12;;;;;;;1999.90;999.90;;;6.40;66.40;;;;;;5071030;28;20171;-69
2024/02/23 06:24:37;;;;;;;1999.90;999.90;;;5.90;45.10;;;;;;5071278;28;20629;-69
2024/02/23 06:27:03;;;;;;;1999.90;999.90;;;5.80;47.60;;;;;;5071232;28;20277;-69
2024/02/23 06:29:29;;;;;;;1999.90;999.90;;;5.70;51.30;;;;;;5071288;28;20174;-69
2024/02/23 06:31:55;;;;;;;1999.90;999.90;;;5.70;52.10;;;;;;5071017;28;20199;-69
2024/02/23 06:34:21;;;;;;;1999.90;999.90;;;5.70;56.10;;;;;;5071047;28;20834;-69
2024/02/23 06:36:47;;;;;;;1999.90;999.90;;;5.70;55.80;;;;;;5071371;28;20441;-69
2024/02/23 06:39:13;;;;;;;1999.90;999.90;;;5.70;55.00;;;;;;5071115;28;20413;-70
2024/02/23 06:41:38;;;;;;;1999.90;999.90;;;5.70;55.90;;;;;;5071416;28;20213;-70
2024/02/23 06:44:05;;;;;;;1999.90;999.90;;;5.70;57.00;;;;;;5074530;28;20231;-70
2024/02/23 06:46:30;;;;;;;1999.90;999.90;;;5.70;57.10;;;;;;5074489;28;20812;-70
2024/02/23 06:48:56;;;;;;;1999.90;999.90;;;5.70;58.10;;;;;;5074407;28;20397;-70
2024/02/23 06:51:21;;;;;;;1999.90;999.90;;;5.70;58.30;;;;;;5074147;28;20167;-70
2024/02/23 06:53:47;;;;;;;1999.90;999.90;;;5.70;57.30;;;;;;5074222;28;20187;-71
2024/02/23 06:56:13;;;;;;;1999.90;999.90;;;5.70;55.20;;;;;;5074551;28;20220;-70
2024/02/23 06:58:39;;;;;;;1999.90;999.90;;;5.70;52.40;;;;;;5074228;28;20236;-70
2024/02/23 07:01:06;;;;;;;1999.90;999.90;;;5.70;53.00;;;;;;5074050;28;20171;-70
2024/02/23 07:03:32;;;;;;;1999.90;999.90;;;5.80;51.90;;;;;;5074163;28;20520;-70
2024/02/23 07:05:58;;;;;;;1999.90;999.90;;;5.70;54.50;;;;;;5073356;28;20468;-70
2024/02/23 07:08:24;;;;;;;1999.90;999.90;;;5.70;55.20;;;;;;5074038;28;20413;-70
2024/02/23 07:10:49;;;;;;;1999.90;999.90;;;5.70;52.60;;;;;;5073912;28;20242;-70
2024/02/23 07:13:15;;;;;;;1999.90;999.90;;;5.80;48.40;;;;;;5073638;28;20191;-70
2024/02/23 07:15:41;;;;;;;1999.90;999.90;;;5.90;51.50;;;;;;5073709;28;20170;-70
2024/02/23 07:18:08;;;;;;;1999.90;999.90;;;5.90;50.20;;;;;;5074263;28;20175;-70
2024/02/23 07:20:35;;;;;;;1999.90;999.90;;;5.90;46.10;;;;;;5073618;28;20178;-71
2024/02/23 07:23:01;;;;;;;1999.90;999.90;;;6.10;46.10;;;;;;5073724;28;20494;-70
2024/02/23 07:25:26;;;;;;;1999.90;999.90;;;6.10;37.90;;;;;;5073057;28;20485;-70
2024/02/23 07:27:52;;;;;;;1999.90;999.90;;;6.20;34.10;;;;;;5073869;28;20166;-70
2024/02/23 07:30:17;;;;;;;1999.90;999.90;;;6.30;34.50;;;;;;5073717;28;20163;-70
2024/02/23 07:32:44;;;;;;;1999.90;999.90;;;6.20;32.40;;;;;;5073251;28;20673;-70
2024/02/23 07:35:10;;;;;;;1999.90;999.90;;;6.30;32.40;;;;;;5073812;28;20170;-70
2024/02/23 07:37:36;;;;;;;1999.90;999.90;;;6.20;31.30;;;;;;5073730;28;20412;-70
2024/02/23 07:40:04;;;;;;;1999.90;999.90;;;6.20;31.20;;;;;;5073563;28;20782;-70
2024/02/23 07:42:30;;;;;;;1999.90;999.90;;;6.30;32.30;;;;;;5072931;28;20844;-70
2024/02/23 07:44:56;;;;;;;1999.90;999.90;;;6.30;33.80;;;;;;5072941;28;20797;-70
2024/02/23 07:47:22;;;;;;;1999.90;999.90;;;6.40;32.70;;;;;;5073301;28;20449;-70
2024/02/23 07:49:47;;;;;;;1999.90;999.90;;;6.40;32.10;;;;;;5073382;28;20408;-71
2024/02/23 07:52:13;;;;;;;1999.90;999.90;;;6.60;49.20;;;;;;5072647;28;20168;-70
2024/02/23 07:54:38;;;;;;;1999.90;999.90;;;6.50;30.00;;;;;;5073106;28;20163;-70
2024/02/23 07:57:04;;;;;;;1999.90;999.90;;;6.60;31.80;;;;;;5072807;28;20182;-70
2024/02/23 07:59:30;;;;;;;1999.90;999.90;;;6.70;31.40;;;;;;5072452;28;20170;-71
2024/02/23 08:01:56;;;;;;;1999.90;999.90;;;6.80;29.40;;;;;;5072891;28;20452;-71
2024/02/23 08:04:22;;;;;;;1999.90;999.90;;;7.50;27.70;;;;;;5073041;28;20457;-70
2024/02/23 08:06:48;;;;;;;1999.90;999.90;;;6.90;24.80;;;;;;5072936;28;20233;-70
2024/02/23 08:09:14;;;;;;;1999.90;999.90;;;6.90;22.80;;;;;;5073022;28;20175;-70
2024/02/23 08:11:40;;;;;;;1999.90;999.90;;;6.90;24.40;;;;;;5072734;28;20888;-70
2024/02/23 08:14:05;;;;;;;1999.90;999.90;;;6.90;24.40;;;;;;5072784;28;20429;-70
2024/02/23 08:16:31;;;;;;;1999.90;999.90;;;7.00;22.10;;;;;;5072869;28;20268;-70
2024/02/23 08:18:57;;;;;;;1999.90;999.90;;;7.00;21.10;;;;;;5073088;28;20908;-70
2024/02/23 08:21:23;;;;;;;1999.90;999.90;;;7.10;18.80;;;;;;5072391;28;20264;-70
2024/02/23 08:23:48;;;;;;;1999.90;999.90;;;7.20;19.80;;;;;;5071526;28;20572;-70
2024/02/23 08:26:15;;;;;;;1999.90;999.90;;;7.20;16.30;;;;;;5072514;28;20198;-70
2024/02/23 08:28:40;;;;;;;1999.90;999.90;;;7.20;18.10;;;;;;5072151;28;20167;-70
2024/02/23 08:31:06;;;;;;;1999.90;999.90;;;7.30;18.10;;;;;;5072091;28;20757;-70
2024/02/23 08:33:31;;;;;;;1999.90;999.90;;;7.30;17.20;;;;;;5072291;28;20191;-70
2024/02/23 08:35:57;;;;;;;1999.90;999.90;;;7.20;16.70;;;;;;5072569;28;20186;-70
2024/02/23 08:38:23;;;;;;;1999.90;999.90;;;7.30;16.90;;;;;;5072389;28;20515;-69
2024/02/23 08:40:49;;;;;;;1999.90;999.90;;;7.30;18.00;;;;;;5072123;28;20270;-70
2024/02/23 08:43:14;;;;;;;1999.90;999.90;;;7.50;17.70;;;;;;5072160;28;20639;-70
2024/02/23 08:45:40;;;;;;;1999.90;999.90;;;7.50;18.50;;;;;;5072366;28;20426;-70
2024/02/23 08:48:07;;;;;;;1999.90;999.90;;;7.70;17.30;;;;;;5072394;28;20599;-70
2024/02/23 08:50:32;;;;;;;1999.90;999.90;;;7.70;16.20;;;;;;5072115;28;20179;-70
2024/02/23 08:52:58;;;;;;;1999.90;999.90;;;7.70;17.30;;;;;;5072126;28;20416;-72
2024/02/23 08:55:23;;;;;;;1999.90;999.90;;;7.70;15.80;;;;;;5072656;28;20170;-71
2024/02/23 08:57:49;;;;;;;1999.90;999.90;;;7.60;13.10;;;;;;5054858;28;20629;-70
2024/02/23 09:00:15;;;;;;;1999.90;999.90;;;7.70;14.00;;;;;;5072487;28;20176;-70
2024/02/23 09:02:44;;;;;;;1999.90;999.90;;;7.80;11.60;;;;;;5072046;28;20828;-72
2024/02/23 09:05:09;;;;;;;1999.90;999.90;;;8.00;13.60;;;;;;5071909;28;20906;-71
2024/02/23 09:07:35;;;;;;;1999.90;999.90;;;8.20;11.00;;;;;;5072207;28;20441;-70
2024/02/23 09:10:03;;;;;;;1999.90;999.90;;;8.30;12.70;;;;;;5072382;28;20194;-70
2024/02/23 09:12:28;;;;;;;1999.90;999.90;;;8.40;8.90;;;;;;5071997;28;20931;-71
2024/02/23 09:14:54;;;;;;;1999.90;999.90;;;8.50;7.70;;;;;;5072544;28;20393;-72
2024/02/23 09:17:20;;;;;;;1999.90;999.90;;;8.50;7.00;;;;;;5072546;28;20177;-71
2024/02/23 09:19:46;;;;;;;1999.90;999.90;;;8.50;4.80;;;;;;5072473;28;20175;-72
2024/02/23 09:22:12;;;;;;;1999.90;999.90;;;8.50;17.10;;;;;;5071976;28;20406;-71
2024/02/23 09:24:40;;;;;;;1999.90;999.90;;;8.40;2.00;;;;;;5072088;28;20263;-70
2024/02/23 09:27:06;;;;;;;1999.90;999.90;;;8.30;2.00;;;;;;5071657;28;20208;-70
2024/02/23 09:29:32;;;;;;;1999.90;999.90;;;8.30;3.50;;;;;;5071975;28;20469;-69
2024/02/23 09:31:58;;;;;;;1999.90;999.90;;;8.40;4.80;;;;;;5071768;28;20407;-70
2024/02/23 09:34:24;;;;;;;1999.90;999.90;;;8.40;5.30;;;;;;5071626;28;20787;-69
2024/02/23 09:36:50;;;;;;;1999.90;999.90;;;8.50;4.40;;;;;;5071654;28;20522;-69
2024/02/23 09:39:16;;;;;;;1999.90;999.90;;;8.40;4.80;;;;;;5071697;28;20459;-69
2024/02/23 09:41:42;;;;;;;1999.90;999.90;;;8.50;2.50;;;;;;5071340;28;20172;-70
2024/02/23 09:44:09;;;;;;;1999.90;999.90;;;8.30;1.90;;;;;;5071506;28;20192;-70
2024/02/23 09:46:37;;;;;;;1999.90;999.90;;;8.60;4.70;;;;;;5071655;28;20822;-70
2024/02/23 09:49:03;;;;;;;1999.90;999.90;;;8.70;1.00;;;;;;5071507;28;20398;-69
2024/02/23 09:51:31;;;;;;;1999.90;999.90;;;8.70;1.00;;;;;;5071272;28;20447;-70
2024/02/23 09:53:57;;;;;;;1999.90;999.90;;;8.50;1.00;;;;;;5071402;28;20459;-69
2024/02/23 09:56:27;;;;;;;1999.90;999.90;;;8.50;1.00;;;;;;5071529;28;20436;-69
2024/02/23 09:58:53;;;;;;;1999.90;999.90;;;8.50;3.90;;;;;;5071519;28;20491;-69
2024/02/23 10:01:28;;;;;;;1999.90;999.90;;;8.70;2.50;;;;;;5071390;28;20410;-70
2024/02/23 10:03:59;;;;;;;1999.90;999.90;;;8.80;1.90;;;;;;5071506;28;20425;-69
2024/02/23 10:06:27;;;;;;;1999.90;999.90;;;8.80;1.00;;;;;;5071233;28;20967;-69
2024/02/23 10:08:56;;;;;;;1999.90;999.90;;;8.80;1.00;;;;;;5071374;28;20407;-69
2024/02/23 10:11:23;;;;;;;1999.90;999.90;;;8.90;1.00;;;;;;5071182;28;20845;-69
2024/02/23 10:13:52;;;;;;;1999.90;999.90;;;9.10;1.00;;;;;;5071234;28;20431;-72
2024/02/23 10:16:20;;;;;;;1999.90;999.90;;;9.20;1.00;;;;;;5073102;28;20410;-68
2024/02/23 10:18:48;;;;;;;1999.90;999.90;;;9.20;1.00;;;;;;5075038;28;20415;-68
2024/02/23 10:21:14;;;;;;;1999.90;999.90;;;9.40;1.00;;;;;;5074757;28;20421;-68
2024/02/23 10:23:40;;;;;;;1999.90;999.90;;;9.20;1.00;;;;;;5074946;28;20482;-68
2024/02/23 10:26:08;;;;;;;1999.90;999.90;;;9.20;1.00;;;;;;5074881;28;20483;-69
2024/02/23 10:28:34;;;;;;;1999.90;999.90;;;9.30;1.00;;;;;;5074930;28;20166;-68
2024/02/23 10:31:01;;;;;;;1999.90;999.90;;;9.20;1.00;;;;;;5074767;28;20421;-68
2024/02/23 10:33:27;;;;;;;1999.90;999.90;;;9.10;1.00;;;;;;5074712;28;20423;-70
2024/02/23 10:35:59;;;;;;;1999.90;999.90;;;9.10;1.00;;;;;;5074655;28;20402;-71
2024/02/23 10:38:28;;;;;;;1999.90;999.90;;;9.10;1.00;;;;;;5074776;28;20490;-70
2024/02/23 10:40:56;;;;;;;1999.90;999.90;;;9.20;1.00;;;;;;5074454;28;20406;-69
2024/02/23 10:43:32;;;;;;;1999.90;999.90;;;9.20;1.00;;;;;;5074529;28;20532;-68
2024/02/23 10:46:02;;;;;;;1999.90;999.90;;;9.10;1.00;;;;;;5074569;28;20449;-68
2024/02/23 10:48:28;;;;;;;1999.90;999.90;;;9.00;1.00;;;;;;5074714;28;20819;-68
2024/02/23 10:50:56;;;;;;;1999.90;999.90;;;9.00;1.00;;;;;;5074299;28;20434;-68
2024/02/23 10:53:24;;;;;;;1999.90;999.90;;;8.90;1.00;;;;;;5074438;28;20425;-67
2024/02/23 10:55:57;;;;;;;1999.90;999.90;;;8.90;1.00;;;;;;5074531;28;20447;-70
2024/02/23 10:58:22;;;;;;;1999.90;999.90;;;9.10;1.00;;;;;;5074453;28;20444;-69
2024/02/23 11:00:48;;;;;;;1999.90;999.90;;;8.90;1.50;;;;;;5074169;28;20411;-68
2024/02/23 11:03:15;;;;;;;1999.90;999.90;;;9.10;2.10;;;;;;5074183;28;20181;-68
2024/02/23 11:05:41;;;;;;;1999.90;999.90;;;8.90;1.00;;;;;;5074339;28;20191;-68
2024/02/23 11:08:07;;;;;;;1999.90;999.90;;;8.90;1.00;;;;;;5074392;28;20402;-68
2024/02/23 11:10:42;;;;;;;1999.90;999.90;;;8.90;1.00;;;;;;5074070;28;20180;-68
2024/02/23 11:13:08;;;;;;;1999.90;999.90;;;9.00;1.10;;;;;;5074077;28;20422;-71
2024/02/23 11:15:40;;;;;;;1999.90;999.90;;;9.20;1.30;;;;;;5074125;28;20936;-68
2024/02/23 11:18:27;;;;;;;1999.90;999.90;;;9.20;1.00;;;;;;5074104;28;20455;-71
2024/02/23 11:20:59;;;;;;;1999.90;999.90;;;9.20;1.10;;;;;;5073785;28;20918;-69
2024/02/23 11:23:25;;;;;;;1999.90;999.90;;;9.30;1.00;;;;;;5073761;28;20501;-68
2024/02/23 11:26:03;;;;;;;1999.90;999.90;;;9.50;1.00;;;;;;5070970;28;20420;-67
2024/02/23 11:28:28;;;;;;;1999.90;999.90;;;9.60;1.00;;;;;;5071272;28;20405;-68
2024/02/23 11:30:54;;;;;;;1999.90;999.90;;;9.40;1.00;;;;;;5072821;28;20411;-69
2024/02/23 11:33:26;;;;;;;1999.90;999.90;;;9.40;1.00;;;;;;5073612;28;20232;-71
2024/02/23 11:35:52;;;;;;;1999.90;999.90;;;9.40;1.00;;;;;;5073696;28;20525;-68
2024/02/23 11:38:20;;;;;;;1999.90;999.90;;;9.80;1.00;;;;;;5073360;28;20413;-70
2024/02/23 11:40:48;;;;;;;1999.90;999.90;;;9.60;1.00;;;;;;5073135;28;20204;-68
2024/02/23 11:43:14;;;;;;;1999.90;999.90;;;9.70;1.00;;;;;;5073242;28;20794;-68
2024/02/23 11:45:41;;;;;;;1999.90;999.90;;;9.60;1.00;;;;;;5073432;28;20405;-68
2024/02/23 11:48:07;;;;;;;1999.90;999.90;;;9.60;1.00;;;;;;5073228;28;20903;-69
2024/02/23 11:50:33;;;;;;;1999.90;999.90;;;9.60;1.00;;;;;;5072708;28;20404;-68
2024/02/23 11:53:01;;;;;;;1999.90;999.90;;;9.60;1.00;;;;;;5073224;28;20474;-68
2024/02/23 11:55:26;;;;;;;1999.90;999.90;;;9.70;1.00;;;;;;5073206;28;20170;-69
2024/02/23 11:57:52;;;;;;;1999.90;999.90;;;9.40;1.00;;;;;;5072755;28;20415;-68
2024/02/23 12:00:18;;;;;;;1999.90;999.90;;;9.50;1.00;;;;;;5073097;28;20173;-67
2024/02/23 12:02:48;;;;;;;1999.90;999.90;;;9.40;1.00;;;;;;5072833;28;20257;-68
2024/02/23 12:05:14;;;;;;;1999.90;999.90;;;9.40;1.00;;;;;;5072644;28;20416;-68
2024/02/23 12:07:40;;;;;;;1999.90;999.90;;;9.40;1.00;;;;;;5072875;28;21144;-68
2024/02/23 12:10:06;;;;;;;1999.90;999.90;;;9.50;1.00;;;;;;5072839;28;20630;-68